This is the latest recevied weather packets stored in our database for station/object AC1IX. If no packets are shown the sender has not sent any weather packets the latest 10 day(s).
| Time | Temp. | Humidity | Pressure | Rain* | Wind** | Luminosity | Snow |
|---|---|---|---|---|---|---|---|
| 1777641526 | 9.44° C | 70% | 1012.3 hPa | 0 mm | - | 620 W/m² | - |
| 1777640918 | 8.33° C | 73% | 1012.3 hPa | 0 mm | - | 613 W/m² | - |
| 1777640615 | 7.78° C | 75% | 1012.5 hPa | 0 mm | - | 516 W/m² | - |
| 1777639102 | 6.11° C | 85% | 1012.5 hPa | 0 mm | - | 365 W/m² | - |
| 1777638801 | 5° C | 89% | 1012.6 hPa | 0 mm | - | 134 W/m² | - |
| 1777638500 | 5° C | 88% | 1012.4 hPa | 0 mm | - | 49 W/m² | - |
| 1777638198 | 5° C | 89% | 1012.4 hPa | 0 mm | - | 57 W/m² | - |
| 1777637894 | 5.56° C | 88% | 1012.4 hPa | 0 mm | - | 55 W/m² | - |
| 1777637590 | 5.56° C | 88% | 1012.3 hPa | 0 mm | - | 48 W/m² | - |
| 1777637288 | 5.56° C | 89% | 1012.3 hPa | 0 mm | - | 73 W/m² | - |
| 1777636984 | 5° C | 91% | 1012.2 hPa | 0 mm | - | 86 W/m² | - |
| 1777636679 | 5.56° C | 93% | 1012.4 hPa | 0 mm | - | 72 W/m² | - |
| 1777636376 | 5° C | 94% | 1012.2 hPa | 0 mm | - | 96 W/m² | - |
| 1777635469 | 4.44° C | 96% | 1011.9 hPa | 0 mm | - | 67 W/m² | - |
| 1777635166 | 4.44° C | 96% | 1012.1 hPa | 0 mm | - | 60 W/m² | - |
| 1777634862 | 4.44° C | 95% | 1012.1 hPa | 0 mm | - | 70 W/m² | - |
| 1777634559 | 4.44° C | 95% | 1012.3 hPa | 0 mm | - | 52 W/m² | - |
| 1777634256 | 4.44° C | 94% | 1012 hPa | 0 mm | - | 35 W/m² | - |
| 1777633952 | 4.44° C | 94% | 1012 hPa | 0 mm | - | 31 W/m² | - |
| 1777633650 | 5° C | 94% | 1011.9 hPa | 0 mm | - | 31 W/m² | - |
| 1777633348 | 5° C | 95% | 1011.9 hPa | 0 mm | - | 43 W/m² | - |
| 1777633045 | 5° C | 95% | 1012 hPa | 0 mm | - | 32 W/m² | - |
| 1777632741 | 4.44° C | 95% | 1011.9 hPa | 0 mm | - | 34 W/m² | - |
| 1777632437 | 4.44° C | 95% | 1011.9 hPa | 0 mm | - | 16 W/m² | - |
| 1777631833 | 4.44° C | 96% | 1012 hPa | 0 mm | - | 9 W/m² | - |
* Rain latest hour (hover to see other rain measurements)
** Current wind speed in m/s (hover to see current wind gust speed)